Latest Coastal Weather Observations for Middle Percy Island

IDQ60701

Issued at 6:42 am EST Sunday 7 February 2016 (issued every 10 minutes, with the page automatically refreshed every 10 minutes)

About coastal observations | Map of coastal stations | Coastal observations for QLD | Marine services | Other Formats
Station Details ID: 200001 Name: MIDDLE PERCY ISLAND Lat: -21.66 Lon: 150.27 Height: 208.7 m
Data from the previous 72 hours. | See also: Recent months at Middle Percy Island
Date/Time
EST
Temp

°C
Wind Pressure Rain
since 9am
mm
Weather Cloud Vis
km
Sea
Height
m
Swell
Dir
 
Speed
knots
Gust
knots
hPa Trend Height
m
Period
s
Dir
07/06:39am 25.5 ESE 15 26 1006.3 - 22.6 - - - - - - -
07/06:30am 25.4 ESE 12 21 1006.2 - 22.4 - - - - - - -
07/06:00am 25.3 ESE 20 27 1005.8 - 21.4 Rain - - - - - -
07/05:30am 25.3 ESE 16 21 1006.0 - 17.2 - - - - - - -
07/05:00am 25.3 ESE 17 25 1005.6 - 10.6 - - - - - - -
07/04:30am 25.3 ESE 17 25 1005.5 - 10.0 - - - - - - -
07/04:08am 25.3 ESE 15 25 1005.4 - 9.8 - - - - - - -
07/04:00am 25.5 ESE 11 17 1005.3 - 9.8 - - - - - - -
07/03:37am 25.6 ESE 15 26 1005.3 - 9.6 - - - - - - -
07/03:30am 25.6 ESE 16 26 1005.1 - 9.6 - - - - - - -
07/03:28am 25.6 ESE 15 26 1005.0 - 9.6 - - - - - - -
07/03:00am 25.4 E 8 15 1005.4 - 9.2 Rain - - - - - -
07/02:30am 25.7 SE 9 20 1005.4 - 7.0 - - - - - - -
07/02:00am 25.6 SE 14 22 1005.8 - 5.6 - - - - - - -
07/01:30am 25.6 ESE 15 22 1005.9 - 4.4 - - - - - - -
07/01:00am 25.5 SE 12 23 1006.2 - 3.8 - - - - - - -
07/12:30am 25.4 SE 12 17 1006.6 - 3.4 - - - - - - -
07/12:00am 25.5 SE 13 20 1006.9 - 3.2 - - - - - - -
 
Date/Time
EST
Temp

°C
Wind Pressure Rain
since 9am
mm
Weather Cloud Vis
km
Sea
Height
m
Swell
Dir
 
Speed
knots
Gust
knots
hPa Trend Height
m
Period
s
Dir
06/11:30pm 25.6 SE 12 17 1007.3 - 3.2 - - - - - - -
06/11:00pm 25.5 ESE 13 18 1007.4 - 3.2 - - - - - - -
06/10:30pm 25.6 SE 16 23 1007.6 - 2.2 - - - - - - -
06/10:00pm 25.6 SE 15 21 1007.6 - 1.2 - - - - - - -
06/09:30pm 25.8 SE 13 18 1007.4 - 1.2 - - - - - - -
06/09:00pm 25.8 SE 12 17 1007.3 - 1.2 - - - - - - -
06/08:30pm 26.0 SE 10 14 1006.9 - 1.2 - - - - - - -
06/08:00pm 26.1 ESE 11 14 1006.8 - 1.2 - - - - - - -
06/07:30pm 26.0 ESE 10 14 1006.4 - 1.2 - - - - - - -
06/07:00pm 26.0 ESE 10 14 1005.8 - 1.2 - - - - - - -
06/06:30pm 26.1 ESE 8 12 1005.5 - 1.2 - - - - - - -
06/06:00pm 26.2 ESE 11 15 1005.0 - 1.2 - - - - - - -
06/05:30pm 26.3 ESE 10 13 1004.5 - 1.2 - - - - - - -
06/05:00pm 26.7 ESE 11 15 1003.9 - 1.2 - - - - - - -
06/04:30pm 26.8 ESE 12 16 1003.8 - 1.2 - - - - - - -
06/04:00pm 26.8 ESE 10 16 1004.0 - 1.2 - - - - - - -
06/03:30pm 27.3 ESE 13 16 1004.1 - 1.2 - - - - - - -
06/03:00pm 27.3 ESE 12 16 1004.2 - 1.2 - - - - - - -
06/02:30pm 27.7 ESE 10 14 1004.5 - 1.2 - - - - - - -
06/02:00pm 27.3 SE 11 15 1004.7 - 1.2 - - - - - - -
06/01:30pm 27.9 ESE 10 14 1004.7 - 1.2 - - - - - - -
06/01:00pm 27.6 E 8 15 1004.8 - 1.2 - - - - - - -
06/12:30pm 27.8 E 8 13 1004.9 - 1.2 - - - - - - -
06/12:00pm 27.4 ESE 8 13 1005.1 - 1.2 - - - - - - -
06/11:30am 25.9 NE 9 16 1005.6 - 1.2 - - - - - - -
06/11:00am 25.9 NE 9 13 1005.5 - 1.2 - - - - - - -
06/10:30am 24.9 ENE 9 13 1005.6 - 1.2 - - - - - - -
06/10:00am 24.7 E 7 13 1005.7 - 1.2 - - - - - - -
06/09:30am 24.1 ESE 11 19 1004.9 - 1.0 - - - - - - -
06/09:00am 24.3 ESE 9 16 1004.6 - 116.4 Recent precip. - - - - - -
06/08:30am 24.2 E 8 12 1005.2 - 116.4 - - - - - - -
06/08:00am 23.7 E 7 12 1005.1 - 116.0 - - - - - - -
06/07:30am 23.6 E 8 13 1005.0 - 115.0 - - - - - - -
06/07:00am 23.7 NE 10 15 1004.8 - 109.2 - - - - - - -
06/06:30am 24.0 NE 4 7 1005.3 - 84.8 - - - - - - -
06/06:00am 24.8 ESE 9 18 1003.6 - 71.0 Rain - - - - - -
06/05:41am 24.9 ESE 15 31 1002.7 - 66.8 - - - - - - -
06/05:39am 24.9 ESE 13 31 1002.7 - 66.2 - - - - - - -
06/05:30am 24.1 ESE 13 26 1003.1 - 63.4 - - - - - - -
06/05:09am 24.9 ESE 15 26 1003.1 - 59.4 - - - - - - -
06/05:00am 24.9 ESE 16 25 1002.8 - 54.6 - - - - - - -
06/04:30am 24.9 ESE 14 23 1003.0 - 46.0 - - - - - - -
06/04:02am 24.8 ESE 15 26 1003.3 - 39.8 - - - - - - -
06/04:00am 24.8 ESE 16 26 1003.2 - 39.4 - - - - - - -
06/03:30am 24.6 ESE 19 28 1002.7 - 34.2 - - - - - - -
06/03:11am 24.6 ESE 20 30 1002.7 - 31.8 - - - - - - -
06/03:00am 24.3 ESE 20 28 1002.7 - 30.4 Rain - - - - - -
06/02:30am 24.6 ESE 21 29 1002.8 - 27.2 - - - - - - -
06/02:00am 24.5 ESE 19 28 1002.9 - 22.8 - - - - - - -
06/01:30am 24.5 SE 19 27 1003.3 - 18.4 - - - - - - -
06/01:00am 24.3 SE 23 31 1003.5 - 13.4 - - - - - - -
06/12:30am 24.5 SE 22 32 1003.8 - 9.4 - - - - - - -
06/12:00am 24.4 SE 22 31 1003.9 - 8.2 Rain - - - - - -
 
Date/Time
EST
Temp

°C
Wind Pressure Rain
since 9am
mm
Weather Cloud Vis
km
Sea
Height
m
Swell
Dir
 
Speed
knots
Gust
knots
hPa Trend Height
m
Period
s
Dir
05/11:55pm 24.4 SE 21 31 1003.8 - 8.0 - - - - - - -
05/11:30pm 24.6 SE 23 31 1004.6 - 6.4 - - - - - - -
05/11:23pm 24.8 SE 20 30 1004.7 - 6.2 - - - - - - -
05/11:00pm 24.8 SE 23 30 1004.9 - 5.0 - - - - - - -
05/10:30pm 24.5 SE 23 30 1005.1 - 3.2 - - - - - - -
05/10:00pm 24.7 SE 18 29 1005.4 - 2.0 - - - - - - -
05/09:36pm 24.6 SE 16 28 1005.6 - 1.8 - - - - - - -
05/09:30pm 24.7 SE 16 25 1005.7 - 1.6 - - - - - - -
05/09:07pm 24.8 SE 18 28 1005.6 - 1.4 - - - - - - -
05/09:00pm 24.9 SE 18 26 1005.5 - 1.4 Rain - - - - - -
05/08:30pm 25.1 SE 17 24 1005.3 - 0.8 - - - - - - -
05/08:00pm 24.9 SE 18 26 1005.0 - 0.2 - - - - - - -
05/07:30pm 25.1 SE 19 26 1004.8 - 0.0 - - - - - - -
05/07:00pm 25.5 SE 20 28 1004.0 - 0.0 - - - - - - -
05/06:54pm 25.4 SE 18 28 1003.9 - 0.0 - - - - - - -
05/06:30pm 25.6 SE 17 24 1003.6 - 0.0 - - - - - - -
05/06:00pm 26.1 SSE 13 19 1003.4 - 0.0 - - - - - - -
05/05:30pm 26.2 SSE 15 20 1002.8 - 0.0 - - - - - - -
05/05:00pm 26.2 SSE 13 20 1002.7 - 0.0 - - - - - - -
05/04:30pm 26.7 SSE 10 14 1002.5 - 0.0 - - - - - - -
05/04:00pm 26.7 SSE 12 15 1002.2 - 0.0 - - - - - - -
05/03:30pm 26.4 S 11 16 1002.4 - 0.0 - - - - - - -
05/03:00pm 26.1 S 11 13 1002.8 - 0.0 - - - - - - -
05/02:30pm 26.4 S 9 12 1003.0 - 0.0 - - - - - - -
05/02:00pm 27.3 SSW 7 9 1003.3 - 0.0 - - - - - - -
05/01:30pm 27.1 SSW 7 9 1003.5 - 0.0 - - - - - - -
05/01:00pm 27.2 SSW 8 12 1003.7 - 0.0 - - - - - - -
05/12:30pm 27.3 SSW 8 11 1003.9 - 0.0 - - - - - - -
05/12:00pm 27.9 SW 7 10 1004.0 - 0.0 - - - - - - -
05/11:30am 28.4 WSW 5 10 1004.0 - 0.0 - - - - - - -
05/11:00am 28.0 WNW 7 10 1004.1 - 0.0 - - - - - - -
05/10:30am 26.9 WNW 4 8 1004.5 - 0.0 - - - - - - -
05/10:00am 27.4 W 2 4 1004.6 - 0.0 - - - - - - -
05/09:30am 27.0 NNE 1 3 1004.8 - 0.0 - - - - - - -
05/09:00am 26.1 SW 2 3 1005.0 - 11.4 - - - - - - -
05/08:30am 26.0 SSW 5 7 1004.8 - 11.4 - - - - - - -
05/08:00am 26.0 SSW 5 6 1004.7 - 11.4 - - - - - - -
05/07:30am 25.8 S 4 6 1004.2 - 11.4 - - - - - - -
05/07:00am 25.2 SW 6 8 1004.0 - 11.4 - - - - - - -
05/06:30am 25.0 SW 7 10 1003.5 - 11.4 - - - - - - -
05/06:00am 24.8 SW 5 7 1003.1 - 11.4 - - - - - - -
05/05:30am 24.7 WNW 4 5 1002.7 - 11.4 - - - - - - -
05/05:00am 24.7 SW 3 5 1002.5 - 11.4 - - - - - - -
05/04:30am 24.6 SSW 4 5 1001.9 - 10.8 - - - - - - -
05/04:00am 24.5 SW 5 6 1001.5 - 10.2 - - - - - - -
05/03:30am 24.7 WSW 2 3 1001.5 - 9.4 - - - - - - -
05/03:00am 24.9 SW 4 7 1001.8 - 8.4 Rain - - - - - -
05/02:30am 24.9 SW 8 11 1002.1 - 6.8 - - - - - - -
05/02:00am 24.9 WSW 7 10 1002.6 - 4.8 - - - - - - -
05/01:30am 25.0 WSW 8 13 1002.6 - 3.0 - - - - - - -
05/01:00am 24.9 WSW 7 11 1003.2 - 2.2 - - - - - - -
05/12:30am 25.1 WSW 8 16 1003.5 - 1.8 - - - - - - -
05/12:00am 25.0 WSW 9 16 1003.8 - 1.8 Recent precip. - - - - - -
 
Date/Time
EST
Temp

°C
Wind Pressure Rain
since 9am
mm
Weather Cloud Vis
km
Sea
Height
m
Swell
Dir
 
Speed
knots
Gust
knots
hPa Trend Height
m
Period
s
Dir
04/11:30pm 24.8 W 7 13 1004.3 - 1.8 - - - - - - -
04/11:00pm 25.0 WNW 8 14 1004.5 - 1.6 - - - - - - -
04/10:30pm 26.8 NNW 10 15 1004.7 - 1.6 - - - - - - -
04/10:00pm 26.7 N 11 16 1004.6 - 1.6 - - - - - - -
04/09:30pm 26.7 NNE 12 15 1004.5 - 1.6 - - - - - - -
04/09:00pm 26.6 NNE 12 16 1004.0 - 1.6 - - - - - - -
04/08:30pm 26.5 N 12 16 1003.7 - 1.6 - - - - - - -
04/08:00pm 26.5 NNE 11 16 1003.7 - 1.6 - - - - - - -
04/07:30pm 26.4 NNE 13 17 1003.5 - 1.6 - - - - - - -
04/07:00pm 26.4 NNE 11 15 1003.3 - 1.6 - - - - - - -
04/06:30pm 26.5 NNE 10 16 1003.1 - 1.6 - - - - - - -
04/06:00pm 26.6 NNE 11 15 1002.6 - 1.6 - - - - - - -
04/05:30pm 26.9 NNE 12 15 1002.4 - 1.6 - - - - - - -
04/05:00pm 27.0 NNE 11 14 1002.2 - 1.6 - - - - - - -
04/04:30pm 27.7 NNE 11 16 1002.1 - 1.6 - - - - - - -
04/04:00pm 27.6 N 11 16 1002.0 - 1.6 - - - - - - -
04/03:30pm 27.9 N 11 16 1002.1 - 1.6 - - - - - - -
04/03:00pm 28.2 NNW 10 13 1002.7 - 1.6 - - - - - - -
04/02:30pm 27.9 NNW 9 13 1003.0 - 1.6 - - - - - - -
04/02:00pm 27.8 WNW 7 12 1003.5 - 1.6 - - - - - - -
04/01:30pm 27.5 WNW 6 9 1003.7 - 1.6 - - - - - - -
04/01:00pm 27.2 WNW 6 9 1003.8 - 1.6 - - - - - - -
04/12:30pm 27.3 N 6 11 1004.1 - 1.6 - - - - - - -
04/12:00pm 27.1 NNE 10 14 1004.3 - 1.6 Recent precip. - - - - - -
04/11:30am 26.3 NNE 4 10 1004.8 - 1.6 - - - - - - -
04/11:00am 27.8 NNE 8 11 1005.1 - 0.0 - - - - - - -
04/10:30am 27.6 N 8 12 1005.5 - 0.0 - - - - - - -
04/10:00am 28.5 NNE 8 13 1005.3 - 0.0 - - - - - - -
04/09:30am 27.6 NNE 7 11 1005.0 - 0.0 - - - - - - -
04/09:00am 27.1 NNE 8 12 1005.1 - 0.4 - - - - - - -
04/08:30am 27.0 NNE 5 7 1005.2 - 0.4 - - - - - - -
04/08:00am 26.5 N 8 11 1005.0 - 0.4 - - - - - - -
04/07:30am 26.7 NW 7 10 1005.1 - 0.4 - - - - - - -
04/07:00am 26.4 WNW 6 9 1005.3 - 0.4 - - - - - - -

Other Formats:

Comma delimited format used in spreadsheet applications
http://www.bom.gov.au/fwo/IDQ60701/IDQ60701.94372.axf

JavaScript Object Notation format (JSON) in row-major order
http://www.bom.gov.au/fwo/IDQ60701/IDQ60701.94372.json